sensor_id;sensor_type;location;lat;lon;timestamp;P1;durP1;ratioP1;P2;durP2;ratioP2
58992;SDS011;44782;0.000;0.000;2023-12-28T00:00:48;2.13;;;1.90;;
58992;SDS011;44782;0.000;0.000;2023-12-28T00:03:05;2.20;;;2.00;;
58992;SDS011;44782;0.000;0.000;2023-12-28T00:05:21;2.30;;;2.10;;
58992;SDS011;44782;0.000;0.000;2023-12-28T00:07:36;3.27;;;2.20;;
58992;SDS011;44782;0.000;0.000;2023-12-28T00:09:52;2.47;;;2.00;;
58992;SDS011;44782;0.000;0.000;2023-12-28T00:12:08;2.10;;;1.90;;
58992;SDS011;44782;0.000;0.000;2023-12-28T00:14:23;2.20;;;2.00;;
58992;SDS011;44782;0.000;0.000;2023-12-28T00:16:39;2.37;;;2.17;;
58992;SDS011;44782;0.000;0.000;2023-12-28T00:18:55;2.40;;;2.20;;
58992;SDS011;44782;0.000;0.000;2023-12-28T00:21:10;2.27;;;2.07;;
58992;SDS011;44782;0.000;0.000;2023-12-28T00:23:26;3.10;;;2.17;;
58992;SDS011;44782;0.000;0.000;2023-12-28T00:25:41;2.50;;;2.30;;
58992;SDS011;44782;0.000;0.000;2023-12-28T00:27:57;2.43;;;2.10;;
58992;SDS011;44782;0.000;0.000;2023-12-28T00:30:13;2.30;;;2.10;;
58992;SDS011;44782;0.000;0.000;2023-12-28T00:32:28;2.27;;;2.10;;
58992;SDS011;44782;0.000;0.000;2023-12-28T00:34:44;2.40;;;2.20;;
58992;SDS011;44782;0.000;0.000;2023-12-28T00:37:00;3.00;;;2.03;;
58992;SDS011;44782;0.000;0.000;2023-12-28T00:39:15;2.23;;;2.00;;
58992;SDS011;44782;0.000;0.000;2023-12-28T00:41:31;2.27;;;2.07;;
58992;SDS011;44782;0.000;0.000;2023-12-28T00:43:47;2.50;;;2.23;;
58992;SDS011;44782;0.000;0.000;2023-12-28T00:46:02;2.20;;;2.00;;
58992;SDS011;44782;0.000;0.000;2023-12-28T00:48:18;2.20;;;2.00;;
58992;SDS011;44782;0.000;0.000;2023-12-28T00:50:33;2.30;;;2.10;;
58992;SDS011;44782;0.000;0.000;2023-12-28T00:52:49;2.20;;;2.00;;
58992;SDS011;44782;0.000;0.000;2023-12-28T00:55:05;2.90;;;2.00;;
58992;SDS011;44782;0.000;0.000;2023-12-28T00:57:21;2.10;;;1.90;;
58992;SDS011;44782;0.000;0.000;2023-12-28T00:59:37;2.00;;;1.90;;
58992;SDS011;44782;0.000;0.000;2023-12-28T01:01:52;2.53;;;2.10;;
58992;SDS011;44782;0.000;0.000;2023-12-28T01:04:09;2.20;;;2.00;;
58992;SDS011;44782;0.000;0.000;2023-12-28T01:06:24;1.93;;;1.83;;
58992;SDS011;44782;0.000;0.000;2023-12-28T01:08:43;2.33;;;1.80;;
58992;SDS011;44782;0.000;0.000;2023-12-28T01:10:59;1.83;;;1.70;;
58992;SDS011;44782;0.000;0.000;2023-12-28T01:13:15;2.20;;;2.00;;
58992;SDS011;44782;0.000;0.000;2023-12-28T01:15:31;2.50;;;1.80;;
58992;SDS011;44782;0.000;0.000;2023-12-28T01:17:46;2.20;;;2.00;;
58992;SDS011;44782;0.000;0.000;2023-12-28T01:20:02;2.00;;;1.80;;
58992;SDS011;44782;0.000;0.000;2023-12-28T01:22:19;2.10;;;1.90;;
58992;SDS011;44782;0.000;0.000;2023-12-28T01:24:34;2.33;;;2.00;;
58992;SDS011;44782;0.000;0.000;2023-12-28T01:26:50;2.50;;;1.90;;
58992;SDS011;44782;0.000;0.000;2023-12-28T01:29:05;1.80;;;1.70;;
58992;SDS011;44782;0.000;0.000;2023-12-28T01:31:21;1.90;;;1.80;;
58992;SDS011;44782;0.000;0.000;2023-12-28T01:33:37;2.33;;;1.90;;
58992;SDS011;44782;0.000;0.000;2023-12-28T01:35:52;2.17;;;1.97;;
58992;SDS011;44782;0.000;0.000;2023-12-28T01:38:08;2.03;;;1.93;;
58992;SDS011;44782;0.000;0.000;2023-12-28T01:40:24;2.20;;;1.90;;
58992;SDS011;44782;0.000;0.000;2023-12-28T01:42:39;2.20;;;2.00;;
58992;SDS011;44782;0.000;0.000;2023-12-28T01:44:55;1.90;;;1.80;;
58992;SDS011;44782;0.000;0.000;2023-12-28T01:47:14;2.00;;;1.90;;
58992;SDS011;44782;0.000;0.000;2023-12-28T01:49:30;2.00;;;1.90;;
58992;SDS011;44782;0.000;0.000;2023-12-28T01:51:45;2.00;;;1.80;;
58992;SDS011;44782;0.000;0.000;2023-12-28T01:54:02;2.00;;;1.80;;
58992;SDS011;44782;0.000;0.000;2023-12-28T01:56:18;2.00;;;1.77;;
58992;SDS011;44782;0.000;0.000;2023-12-28T01:58:35;1.90;;;1.80;;
58992;SDS011;44782;0.000;0.000;2023-12-28T02:00:52;1.97;;;1.80;;
58992;SDS011;44782;0.000;0.000;2023-12-28T02:03:10;1.80;;;1.70;;
58992;SDS011;44782;0.000;0.000;2023-12-28T02:05:26;1.90;;;1.80;;
58992;SDS011;44782;0.000;0.000;2023-12-28T02:10:07;2.23;;;2.00;;
58992;SDS011;44782;0.000;0.000;2023-12-28T02:12:23;2.10;;;1.90;;
58992;SDS011;44782;0.000;0.000;2023-12-28T02:14:39;2.03;;;1.80;;
58992;SDS011;44782;0.000;0.000;2023-12-28T02:16:59;2.17;;;1.80;;
58992;SDS011;44782;0.000;0.000;2023-12-28T02:19:24;1.80;;;1.70;;
58992;SDS011;44782;0.000;0.000;2023-12-28T02:21:47;2.03;;;1.90;;
58992;SDS011;44782;0.000;0.000;2023-12-28T02:24:03;2.13;;;1.93;;
58992;SDS011;44782;0.000;0.000;2023-12-28T02:26:19;1.80;;;1.70;;
58992;SDS011;44782;0.000;0.000;2023-12-28T02:28:34;1.87;;;1.77;;
58992;SDS011;44782;0.000;0.000;2023-12-28T02:30:50;2.03;;;1.80;;
58992;SDS011;44782;0.000;0.000;2023-12-28T02:35:41;2.27;;;1.80;;
58992;SDS011;44782;0.000;0.000;2023-12-28T02:38:09;2.07;;;1.87;;
58992;SDS011;44782;0.000;0.000;2023-12-28T02:40:26;1.70;;;1.60;;
58992;SDS011;44782;0.000;0.000;2023-12-28T02:42:43;1.80;;;1.70;;
58992;SDS011;44782;0.000;0.000;2023-12-28T02:44:59;1.83;;;1.73;;
58992;SDS011;44782;0.000;0.000;2023-12-28T02:47:15;2.10;;;1.97;;
58992;SDS011;44782;0.000;0.000;2023-12-28T02:49:30;1.70;;;1.60;;
58992;SDS011;44782;0.000;0.000;2023-12-28T02:51:46;2.40;;;1.60;;
58992;SDS011;44782;0.000;0.000;2023-12-28T02:54:02;2.57;;;1.80;;
58992;SDS011;44782;0.000;0.000;2023-12-28T02:56:18;1.90;;;1.80;;
58992;SDS011;44782;0.000;0.000;2023-12-28T02:58:33;2.07;;;1.80;;
58992;SDS011;44782;0.000;0.000;2023-12-28T03:00:49;1.90;;;1.60;;
58992;SDS011;44782;0.000;0.000;2023-12-28T03:03:04;1.90;;;1.70;;
58992;SDS011;44782;0.000;0.000;2023-12-28T03:05:20;1.90;;;1.70;;
58992;SDS011;44782;0.000;0.000;2023-12-28T03:07:36;2.07;;;1.87;;
58992;SDS011;44782;0.000;0.000;2023-12-28T03:09:52;1.80;;;1.70;;
58992;SDS011;44782;0.000;0.000;2023-12-28T03:12:08;1.63;;;1.53;;
58992;SDS011;44782;0.000;0.000;2023-12-28T03:14:23;2.10;;;1.90;;
58992;SDS011;44782;0.000;0.000;2023-12-28T03:16:39;1.73;;;1.63;;
58992;SDS011;44782;0.000;0.000;2023-12-28T03:18:55;1.60;;;1.50;;
58992;SDS011;44782;0.000;0.000;2023-12-28T03:21:10;1.83;;;1.70;;
58992;SDS011;44782;0.000;0.000;2023-12-28T03:23:26;1.80;;;1.70;;
58992;SDS011;44782;0.000;0.000;2023-12-28T03:25:42;1.80;;;1.70;;
58992;SDS011;44782;0.000;0.000;2023-12-28T03:27:57;1.60;;;1.50;;
58992;SDS011;44782;0.000;0.000;2023-12-28T03:30:13;2.10;;;1.90;;
58992;SDS011;44782;0.000;0.000;2023-12-28T03:32:29;1.77;;;1.67;;
58992;SDS011;44782;0.000;0.000;2023-12-28T03:34:45;1.97;;;1.70;;
58992;SDS011;44782;0.000;0.000;2023-12-28T03:37:01;1.70;;;1.60;;
58992;SDS011;44782;0.000;0.000;2023-12-28T03:39:17;1.50;;;1.40;;
58992;SDS011;44782;0.000;0.000;2023-12-28T03:41:32;1.80;;;1.70;;
58992;SDS011;44782;0.000;0.000;2023-12-28T03:43:48;2.10;;;1.90;;
58992;SDS011;44782;0.000;0.000;2023-12-28T03:46:04;2.10;;;1.70;;
58992;SDS011;44782;0.000;0.000;2023-12-28T03:48:20;1.77;;;1.63;;
58992;SDS011;44782;0.000;0.000;2023-12-28T03:50:35;1.87;;;1.70;;
58992;SDS011;44782;0.000;0.000;2023-12-28T03:52:51;1.63;;;1.53;;
58992;SDS011;44782;0.000;0.000;2023-12-28T03:55:07;1.67;;;1.50;;
58992;SDS011;44782;0.000;0.000;2023-12-28T03:57:23;1.60;;;1.50;;
58992;SDS011;44782;0.000;0.000;2023-12-28T03:59:40;1.87;;;1.70;;
58992;SDS011;44782;0.000;0.000;2023-12-28T04:01:56;1.90;;;1.70;;
58992;SDS011;44782;0.000;0.000;2023-12-28T04:04:11;1.73;;;1.60;;
58992;SDS011;44782;0.000;0.000;2023-12-28T04:06:27;1.70;;;1.60;;
58992;SDS011;44782;0.000;0.000;2023-12-28T04:08:43;1.70;;;1.60;;
58992;SDS011;44782;0.000;0.000;2023-12-28T04:10:59;1.67;;;1.57;;
58992;SDS011;44782;0.000;0.000;2023-12-28T04:13:15;1.83;;;1.73;;
58992;SDS011;44782;0.000;0.000;2023-12-28T04:15:31;1.53;;;1.43;;
58992;SDS011;44782;0.000;0.000;2023-12-28T04:17:47;1.97;;;1.60;;
58992;SDS011;44782;0.000;0.000;2023-12-28T04:20:02;1.67;;;1.40;;
58992;SDS011;44782;0.000;0.000;2023-12-28T04:22:19;2.07;;;1.60;;
58992;SDS011;44782;0.000;0.000;2023-12-28T04:24:34;2.10;;;1.70;;
58992;SDS011;44782;0.000;0.000;2023-12-28T04:26:51;2.00;;;1.77;;
58992;SDS011;44782;0.000;0.000;2023-12-28T04:29:07;1.70;;;1.60;;
58992;SDS011;44782;0.000;0.000;2023-12-28T04:31:23;1.70;;;1.60;;
58992;SDS011;44782;0.000;0.000;2023-12-28T04:33:39;2.50;;;1.70;;
58992;SDS011;44782;0.000;0.000;2023-12-28T04:35:54;1.90;;;1.80;;
58992;SDS011;44782;0.000;0.000;2023-12-28T04:38:10;1.63;;;1.53;;
58992;SDS011;44782;0.000;0.000;2023-12-28T04:40:26;1.87;;;1.77;;
58992;SDS011;44782;0.000;0.000;2023-12-28T04:42:41;1.50;;;1.40;;
58992;SDS011;44782;0.000;0.000;2023-12-28T04:44:57;1.90;;;1.70;;
58992;SDS011;44782;0.000;0.000;2023-12-28T04:47:13;1.70;;;1.60;;
58992;SDS011;44782;0.000;0.000;2023-12-28T04:49:29;1.70;;;1.60;;
58992;SDS011;44782;0.000;0.000;2023-12-28T04:51:45;2.10;;;1.50;;
58992;SDS011;44782;0.000;0.000;2023-12-28T04:54:00;1.80;;;1.70;;
58992;SDS011;44782;0.000;0.000;2023-12-28T04:56:19;1.50;;;1.40;;
58992;SDS011;44782;0.000;0.000;2023-12-28T04:58:35;1.73;;;1.63;;
58992;SDS011;44782;0.000;0.000;2023-12-28T05:00:50;2.20;;;1.60;;
58992;SDS011;44782;0.000;0.000;2023-12-28T05:03:06;2.50;;;1.60;;
58992;SDS011;44782;0.000;0.000;2023-12-28T05:05:22;2.47;;;1.80;;
58992;SDS011;44782;0.000;0.000;2023-12-28T05:07:37;2.30;;;1.50;;
58992;SDS011;44782;0.000;0.000;2023-12-28T05:09:53;1.80;;;1.70;;
58992;SDS011;44782;0.000;0.000;2023-12-28T05:12:09;1.70;;;1.60;;
58992;SDS011;44782;0.000;0.000;2023-12-28T05:14:25;1.87;;;1.63;;
58992;SDS011;44782;0.000;0.000;2023-12-28T05:16:40;1.60;;;1.50;;
58992;SDS011;44782;0.000;0.000;2023-12-28T05:18:56;1.70;;;1.60;;
58992;SDS011;44782;0.000;0.000;2023-12-28T05:21:12;1.97;;;1.53;;
58992;SDS011;44782;0.000;0.000;2023-12-28T05:23:28;2.23;;;1.70;;
58992;SDS011;44782;0.000;0.000;2023-12-28T05:25:44;2.03;;;1.80;;
58992;SDS011;44782;0.000;0.000;2023-12-28T05:28:01;1.87;;;1.60;;
58992;SDS011;44782;0.000;0.000;2023-12-28T05:30:17;2.00;;;1.80;;
58992;SDS011;44782;0.000;0.000;2023-12-28T05:32:32;1.50;;;1.40;;
58992;SDS011;44782;0.000;0.000;2023-12-28T05:34:48;3.10;;;1.70;;
58992;SDS011;44782;0.000;0.000;2023-12-28T05:37:05;1.60;;;1.50;;
58992;SDS011;44782;0.000;0.000;2023-12-28T05:39:20;2.63;;;1.77;;
58992;SDS011;44782;0.000;0.000;2023-12-28T05:41:36;2.13;;;1.67;;
58992;SDS011;44782;0.000;0.000;2023-12-28T05:43:52;1.57;;;1.47;;
58992;SDS011;44782;0.000;0.000;2023-12-28T05:46:08;2.10;;;1.70;;
58992;SDS011;44782;0.000;0.000;2023-12-28T05:48:24;2.20;;;1.80;;
58992;SDS011;44782;0.000;0.000;2023-12-28T05:50:39;2.13;;;1.67;;
58992;SDS011;44782;0.000;0.000;2023-12-28T05:52:55;1.60;;;1.50;;
58992;SDS011;44782;0.000;0.000;2023-12-28T05:55:11;1.93;;;1.60;;
58992;SDS011;44782;0.000;0.000;2023-12-28T05:57:27;2.63;;;1.70;;
58992;SDS011;44782;0.000;0.000;2023-12-28T05:59:45;1.90;;;1.80;;
58992;SDS011;44782;0.000;0.000;2023-12-28T06:02:01;1.93;;;1.60;;
58992;SDS011;44782;0.000;0.000;2023-12-28T06:04:18;2.07;;;1.70;;
58992;SDS011;44782;0.000;0.000;2023-12-28T06:06:34;1.60;;;1.50;;
58992;SDS011;44782;0.000;0.000;2023-12-28T06:08:51;1.70;;;1.60;;
58992;SDS011;44782;0.000;0.000;2023-12-28T06:11:07;1.80;;;1.57;;
58992;SDS011;44782;0.000;0.000;2023-12-28T06:13:22;2.10;;;1.60;;
58992;SDS011;44782;0.000;0.000;2023-12-28T06:15:38;2.00;;;1.50;;
58992;SDS011;44782;0.000;0.000;2023-12-28T06:17:54;1.93;;;1.73;;
58992;SDS011;44782;0.000;0.000;2023-12-28T06:20:09;2.03;;;1.60;;
58992;SDS011;44782;0.000;0.000;2023-12-28T06:22:25;3.33;;;1.80;;
58992;SDS011;44782;0.000;0.000;2023-12-28T06:24:42;2.70;;;1.90;;
58992;SDS011;44782;0.000;0.000;2023-12-28T06:26:58;2.27;;;1.80;;
58992;SDS011;44782;0.000;0.000;2023-12-28T06:29:14;4.03;;;1.87;;
58992;SDS011;44782;0.000;0.000;2023-12-28T06:31:29;3.00;;;2.00;;
58992;SDS011;44782;0.000;0.000;2023-12-28T06:33:45;3.10;;;1.97;;
58992;SDS011;44782;0.000;0.000;2023-12-28T06:36:05;3.20;;;2.03;;
58992;SDS011;44782;0.000;0.000;2023-12-28T06:38:21;4.30;;;2.40;;
58992;SDS011;44782;0.000;0.000;2023-12-28T06:40:37;5.53;;;2.40;;
58992;SDS011;44782;0.000;0.000;2023-12-28T06:42:53;4.27;;;2.70;;
58992;SDS011;44782;0.000;0.000;2023-12-28T06:45:09;6.53;;;3.30;;
58992;SDS011;44782;0.000;0.000;2023-12-28T06:47:25;6.03;;;3.50;;
58992;SDS011;44782;0.000;0.000;2023-12-28T06:49:41;6.17;;;3.73;;
58992;SDS011;44782;0.000;0.000;2023-12-28T06:51:57;8.77;;;3.83;;
58992;SDS011;44782;0.000;0.000;2023-12-28T06:54:13;7.30;;;4.10;;
58992;SDS011;44782;0.000;0.000;2023-12-28T06:56:30;7.47;;;4.00;;
58992;SDS011;44782;0.000;0.000;2023-12-28T06:58:46;10.00;;;4.67;;
58992;SDS011;44782;0.000;0.000;2023-12-28T07:01:05;8.50;;;4.53;;
58992;SDS011;44782;0.000;0.000;2023-12-28T07:03:21;8.53;;;4.40;;
58992;SDS011;44782;0.000;0.000;2023-12-28T07:05:37;11.23;;;5.50;;
58992;SDS011;44782;0.000;0.000;2023-12-28T07:07:52;9.63;;;5.20;;
58992;SDS011;44782;0.000;0.000;2023-12-28T07:10:08;9.73;;;4.97;;
58992;SDS011;44782;0.000;0.000;2023-12-28T07:12:24;11.83;;;4.77;;
58992;SDS011;44782;0.000;0.000;2023-12-28T07:14:40;7.73;;;5.07;;
58992;SDS011;44782;0.000;0.000;2023-12-28T07:16:56;9.37;;;4.53;;
58992;SDS011;44782;0.000;0.000;2023-12-28T07:19:11;9.13;;;4.40;;
58992;SDS011;44782;0.000;0.000;2023-12-28T07:21:27;8.70;;;4.30;;
58992;SDS011;44782;0.000;0.000;2023-12-28T07:23:43;10.07;;;4.80;;
58992;SDS011;44782;0.000;0.000;2023-12-28T07:26:04;10.53;;;4.83;;
58992;SDS011;44782;0.000;0.000;2023-12-28T07:28:20;9.97;;;4.63;;
58992;SDS011;44782;0.000;0.000;2023-12-28T07:30:36;10.53;;;4.47;;
58992;SDS011;44782;0.000;0.000;2023-12-28T07:32:52;10.13;;;4.60;;
58992;SDS011;44782;0.000;0.000;2023-12-28T07:35:08;9.30;;;4.30;;
58992;SDS011;44782;0.000;0.000;2023-12-28T07:37:23;10.43;;;4.30;;
58992;SDS011;44782;0.000;0.000;2023-12-28T07:39:39;11.07;;;4.83;;
58992;SDS011;44782;0.000;0.000;2023-12-28T07:41:55;13.80;;;5.17;;
58992;SDS011;44782;0.000;0.000;2023-12-28T07:44:10;8.77;;;4.37;;
58992;SDS011;44782;0.000;0.000;2023-12-28T07:46:26;8.30;;;4.53;;
58992;SDS011;44782;0.000;0.000;2023-12-28T07:48:42;10.70;;;4.30;;
58992;SDS011;44782;0.000;0.000;2023-12-28T07:50:57;17.93;;;5.40;;
58992;SDS011;44782;0.000;0.000;2023-12-28T07:53:13;26.43;;;5.70;;
58992;SDS011;44782;0.000;0.000;2023-12-28T07:55:29;26.83;;;5.83;;
58992;SDS011;44782;0.000;0.000;2023-12-28T07:57:45;29.80;;;5.33;;
58992;SDS011;44782;0.000;0.000;2023-12-28T08:00:01;27.07;;;5.80;;
58992;SDS011;44782;0.000;0.000;2023-12-28T08:02:17;23.60;;;5.20;;
58992;SDS011;44782;0.000;0.000;2023-12-28T08:04:33;25.67;;;5.67;;
58992;SDS011;44782;0.000;0.000;2023-12-28T08:06:48;19.73;;;5.40;;
58992;SDS011;44782;0.000;0.000;2023-12-28T08:09:04;16.73;;;5.27;;
58992;SDS011;44782;0.000;0.000;2023-12-28T08:11:20;18.60;;;4.77;;
58992;SDS011;44782;0.000;0.000;2023-12-28T08:13:35;20.07;;;5.87;;
58992;SDS011;44782;0.000;0.000;2023-12-28T08:15:51;15.50;;;4.77;;
58992;SDS011;44782;0.000;0.000;2023-12-28T08:18:07;18.77;;;5.20;;
58992;SDS011;44782;0.000;0.000;2023-12-28T08:20:22;19.57;;;5.47;;
58992;SDS011;44782;0.000;0.000;2023-12-28T08:22:38;15.10;;;5.00;;
58992;SDS011;44782;0.000;0.000;2023-12-28T08:24:57;16.73;;;5.00;;
58992;SDS011;44782;0.000;0.000;2023-12-28T08:27:12;18.50;;;5.57;;
58992;SDS011;44782;0.000;0.000;2023-12-28T08:29:28;18.40;;;5.17;;
58992;SDS011;44782;0.000;0.000;2023-12-28T08:31:44;13.67;;;4.73;;
58992;SDS011;44782;0.000;0.000;2023-12-28T08:33:59;14.43;;;5.00;;
58992;SDS011;44782;0.000;0.000;2023-12-28T08:36:15;13.10;;;4.73;;
58992;SDS011;44782;0.000;0.000;2023-12-28T08:38:32;11.18;;;4.72;;
58992;SDS011;44782;0.000;0.000;2023-12-28T08:40:48;17.17;;;5.67;;
58992;SDS011;44782;0.000;0.000;2023-12-28T08:43:04;13.93;;;5.03;;
58992;SDS011;44782;0.000;0.000;2023-12-28T08:45:19;15.70;;;4.77;;
58992;SDS011;44782;0.000;0.000;2023-12-28T08:47:35;18.80;;;5.37;;
58992;SDS011;44782;0.000;0.000;2023-12-28T08:49:51;14.97;;;5.10;;
58992;SDS011;44782;0.000;0.000;2023-12-28T08:52:06;14.27;;;5.10;;
58992;SDS011;44782;0.000;0.000;2023-12-28T08:54:22;15.67;;;4.70;;
58992;SDS011;44782;0.000;0.000;2023-12-28T08:56:38;16.90;;;4.83;;
58992;SDS011;44782;0.000;0.000;2023-12-28T08:58:54;14.20;;;5.17;;
58992;SDS011;44782;0.000;0.000;2023-12-28T09:01:17;12.63;;;4.90;;
58992;SDS011;44782;0.000;0.000;2023-12-28T09:03:33;10.30;;;4.90;;
58992;SDS011;44782;0.000;0.000;2023-12-28T09:05:49;9.35;;;5.03;;
58992;SDS011;44782;0.000;0.000;2023-12-28T09:08:05;12.77;;;4.55;;
58992;SDS011;44782;0.000;0.000;2023-12-28T09:10:21;11.07;;;5.43;;
58992;SDS011;44782;0.000;0.000;2023-12-28T09:12:36;17.27;;;5.13;;
58992;SDS011;44782;0.000;0.000;2023-12-28T09:14:52;15.00;;;4.93;;
58992;SDS011;44782;0.000;0.000;2023-12-28T09:17:08;12.67;;;4.83;;
58992;SDS011;44782;0.000;0.000;2023-12-28T09:19:24;12.30;;;5.20;;
58992;SDS011;44782;0.000;0.000;2023-12-28T09:21:39;14.18;;;5.43;;
58992;SDS011;44782;0.000;0.000;2023-12-28T09:23:56;13.98;;;5.25;;
58992;SDS011;44782;0.000;0.000;2023-12-28T09:26:12;17.52;;;5.43;;
58992;SDS011;44782;0.000;0.000;2023-12-28T09:28:27;12.60;;;5.07;;
58992;SDS011;44782;0.000;0.000;2023-12-28T09:30:43;16.35;;;4.85;;
58992;SDS011;44782;0.000;0.000;2023-12-28T09:32:59;12.90;;;4.95;;
58992;SDS011;44782;0.000;0.000;2023-12-28T09:35:14;12.70;;;4.63;;
58992;SDS011;44782;0.000;0.000;2023-12-28T09:37:30;13.33;;;5.13;;
58992;SDS011;44782;0.000;0.000;2023-12-28T09:39:46;10.57;;;5.00;;
58992;SDS011;44782;0.000;0.000;2023-12-28T09:42:06;10.65;;;4.90;;
58992;SDS011;44782;0.000;0.000;2023-12-28T09:44:28;12.80;;;4.63;;
58992;SDS011;44782;0.000;0.000;2023-12-28T09:46:46;11.10;;;4.78;;
58992;SDS011;44782;0.000;0.000;2023-12-28T09:49:02;12.98;;;5.18;;
58992;SDS011;44782;0.000;0.000;2023-12-28T09:51:19;10.65;;;4.78;;
58992;SDS011;44782;0.000;0.000;2023-12-28T09:53:35;11.77;;;4.68;;
58992;SDS011;44782;0.000;0.000;2023-12-28T09:55:51;10.70;;;5.18;;
58992;SDS011;44782;0.000;0.000;2023-12-28T09:58:07;10.80;;;5.03;;
58992;SDS011;44782;0.000;0.000;2023-12-28T10:00:24;15.75;;;5.28;;
58992;SDS011;44782;0.000;0.000;2023-12-28T10:02:40;16.67;;;5.10;;
58992;SDS011;44782;0.000;0.000;2023-12-28T10:04:59;15.55;;;5.13;;
58992;SDS011;44782;0.000;0.000;2023-12-28T10:07:15;18.00;;;5.40;;
58992;SDS011;44782;0.000;0.000;2023-12-28T10:09:31;17.63;;;4.68;;
58992;SDS011;44782;0.000;0.000;2023-12-28T10:11:47;12.98;;;5.63;;
58992;SDS011;44782;0.000;0.000;2023-12-28T10:14:04;13.98;;;5.32;;
58992;SDS011;44782;0.000;0.000;2023-12-28T10:16:22;13.07;;;5.37;;
58992;SDS011;44782;0.000;0.000;2023-12-28T10:18:43;13.35;;;5.53;;
58992;SDS011;44782;0.000;0.000;2023-12-28T10:21:00;16.20;;;5.47;;
58992;SDS011;44782;0.000;0.000;2023-12-28T10:23:16;22.80;;;5.72;;
58992;SDS011;44782;0.000;0.000;2023-12-28T10:25:32;17.70;;;5.65;;
58992;SDS011;44782;0.000;0.000;2023-12-28T10:27:52;15.73;;;6.03;;
58992;SDS011;44782;0.000;0.000;2023-12-28T10:30:08;20.05;;;5.85;;
58992;SDS011;44782;0.000;0.000;2023-12-28T10:32:25;17.15;;;5.93;;
58992;SDS011;44782;0.000;0.000;2023-12-28T10:34:41;17.95;;;5.43;;
58992;SDS011;44782;0.000;0.000;2023-12-28T10:36:57;20.47;;;6.27;;
58992;SDS011;44782;0.000;0.000;2023-12-28T10:39:15;15.53;;;5.93;;
58992;SDS011;44782;0.000;0.000;2023-12-28T10:41:34;26.70;;;6.03;;
58992;SDS011;44782;0.000;0.000;2023-12-28T10:44:26;17.13;;;6.23;;
58992;SDS011;44782;0.000;0.000;2023-12-28T10:46:39;23.73;;;6.07;;
58992;SDS011;44782;0.000;0.000;2023-12-28T10:49:11;22.90;;;6.87;;
58992;SDS011;44782;0.000;0.000;2023-12-28T10:51:27;33.03;;;6.97;;
58992;SDS011;44782;0.000;0.000;2023-12-28T10:56:12;33.00;;;6.63;;
58992;SDS011;44782;0.000;0.000;2023-12-28T10:58:50;35.00;;;6.90;;
58992;SDS011;44782;0.000;0.000;2023-12-28T11:01:31;31.00;;;6.77;;
58992;SDS011;44782;0.000;0.000;2023-12-28T11:03:50;26.43;;;7.00;;
58992;SDS011;44782;0.000;0.000;2023-12-28T11:06:13;37.60;;;7.30;;
58992;SDS011;44782;0.000;0.000;2023-12-28T11:08:32;34.87;;;7.43;;
58992;SDS011;44782;0.000;0.000;2023-12-28T11:10:50;36.27;;;7.67;;
58992;SDS011;44782;0.000;0.000;2023-12-28T11:13:06;29.80;;;6.70;;
58992;SDS011;44782;0.000;0.000;2023-12-28T11:15:25;30.30;;;7.27;;
58992;SDS011;44782;0.000;0.000;2023-12-28T11:17:41;34.93;;;6.80;;
58992;SDS011;44782;0.000;0.000;2023-12-28T11:19:58;30.40;;;7.10;;
58992;SDS011;44782;0.000;0.000;2023-12-28T11:22:14;27.60;;;5.70;;
58992;SDS011;44782;0.000;0.000;2023-12-28T11:24:30;28.70;;;6.30;;
58992;SDS011;44782;0.000;0.000;2023-12-28T11:26:51;21.17;;;6.10;;
58992;SDS011;44782;0.000;0.000;2023-12-28T11:29:09;23.00;;;5.87;;
58992;SDS011;44782;0.000;0.000;2023-12-28T11:31:25;19.37;;;5.33;;
58992;SDS011;44782;0.000;0.000;2023-12-28T11:33:50;19.90;;;4.93;;
58992;SDS011;44782;0.000;0.000;2023-12-28T11:36:08;20.10;;;5.90;;
58992;SDS011;44782;0.000;0.000;2023-12-28T11:38:24;18.30;;;5.63;;
58992;SDS011;44782;0.000;0.000;2023-12-28T11:40:41;20.20;;;5.90;;
58992;SDS011;44782;0.000;0.000;2023-12-28T11:42:57;23.17;;;5.57;;
58992;SDS011;44782;0.000;0.000;2023-12-28T11:45:13;23.27;;;5.83;;
58992;SDS011;44782;0.000;0.000;2023-12-28T11:47:32;22.00;;;5.73;;
58992;SDS011;44782;0.000;0.000;2023-12-28T11:49:48;13.80;;;4.80;;
58992;SDS011;44782;0.000;0.000;2023-12-28T11:52:07;20.83;;;5.47;;
58992;SDS011;44782;0.000;0.000;2023-12-28T11:54:24;17.80;;;4.90;;
58992;SDS011;44782;0.000;0.000;2023-12-28T11:56:40;17.10;;;5.00;;
58992;SDS011;44782;0.000;0.000;2023-12-28T11:58:57;15.63;;;4.77;;
58992;SDS011;44782;0.000;0.000;2023-12-28T12:01:13;17.20;;;5.23;;
58992;SDS011;44782;0.000;0.000;2023-12-28T12:03:29;17.97;;;4.60;;
58992;SDS011;44782;0.000;0.000;2023-12-28T12:05:45;16.53;;;4.60;;
58992;SDS011;44782;0.000;0.000;2023-12-28T12:08:00;18.30;;;4.90;;
58992;SDS011;44782;0.000;0.000;2023-12-28T12:10:16;17.57;;;4.57;;
58992;SDS011;44782;0.000;0.000;2023-12-28T12:12:32;24.80;;;5.17;;
58992;SDS011;44782;0.000;0.000;2023-12-28T12:14:47;21.60;;;5.20;;
58992;SDS011;44782;0.000;0.000;2023-12-28T12:17:03;22.63;;;4.50;;
58992;SDS011;44782;0.000;0.000;2023-12-28T12:19:19;23.27;;;5.03;;
58992;SDS011;44782;0.000;0.000;2023-12-28T12:21:35;17.17;;;4.23;;
58992;SDS011;44782;0.000;0.000;2023-12-28T12:23:51;16.23;;;4.00;;
58992;SDS011;44782;0.000;0.000;2023-12-28T12:26:07;19.83;;;4.50;;
58992;SDS011;44782;0.000;0.000;2023-12-28T12:28:22;19.40;;;3.90;;
58992;SDS011;44782;0.000;0.000;2023-12-28T12:30:38;16.97;;;4.03;;
58992;SDS011;44782;0.000;0.000;2023-12-28T12:32:54;16.73;;;3.57;;
58992;SDS011;44782;0.000;0.000;2023-12-28T12:35:10;17.30;;;3.57;;
58992;SDS011;44782;0.000;0.000;2023-12-28T12:37:26;22.00;;;4.00;;
58992;SDS011;44782;0.000;0.000;2023-12-28T12:39:42;14.30;;;4.13;;
58992;SDS011;44782;0.000;0.000;2023-12-28T12:41:59;15.40;;;4.00;;
58992;SDS011;44782;0.000;0.000;2023-12-28T12:44:14;9.87;;;3.43;;
58992;SDS011;44782;0.000;0.000;2023-12-28T12:46:32;10.10;;;3.30;;
58992;SDS011;44782;0.000;0.000;2023-12-28T12:48:54;14.97;;;3.30;;
58992;SDS011;44782;0.000;0.000;2023-12-28T12:51:14;10.23;;;3.20;;
58992;SDS011;44782;0.000;0.000;2023-12-28T12:53:36;10.47;;;3.27;;
58992;SDS011;44782;0.000;0.000;2023-12-28T12:55:54;12.77;;;3.20;;
58992;SDS011;44782;0.000;0.000;2023-12-28T12:58:10;14.27;;;3.33;;
58992;SDS011;44782;0.000;0.000;2023-12-28T13:00:28;11.87;;;3.27;;
58992;SDS011;44782;0.000;0.000;2023-12-28T13:02:44;10.00;;;3.00;;
58992;SDS011;44782;0.000;0.000;2023-12-28T13:04:59;10.50;;;3.27;;
58992;SDS011;44782;0.000;0.000;2023-12-28T13:07:15;11.83;;;3.10;;
58992;SDS011;44782;0.000;0.000;2023-12-28T13:09:31;10.77;;;2.80;;
58992;SDS011;44782;0.000;0.000;2023-12-28T13:11:47;9.10;;;2.70;;
58992;SDS011;44782;0.000;0.000;2023-12-28T13:14:05;8.73;;;2.50;;
58992;SDS011;44782;0.000;0.000;2023-12-28T13:16:20;9.20;;;2.97;;
58992;SDS011;44782;0.000;0.000;2023-12-28T13:18:36;10.40;;;3.27;;
58992;SDS011;44782;0.000;0.000;2023-12-28T13:20:52;10.27;;;2.90;;
58992;SDS011;44782;0.000;0.000;2023-12-28T13:23:08;8.70;;;2.70;;
58992;SDS011;44782;0.000;0.000;2023-12-28T13:25:23;6.90;;;2.50;;
58992;SDS011;44782;0.000;0.000;2023-12-28T13:27:39;8.70;;;3.07;;
58992;SDS011;44782;0.000;0.000;2023-12-28T13:29:55;6.67;;;2.60;;
58992;SDS011;44782;0.000;0.000;2023-12-28T13:32:10;6.87;;;2.70;;
58992;SDS011;44782;0.000;0.000;2023-12-28T13:34:26;7.00;;;2.50;;
58992;SDS011;44782;0.000;0.000;2023-12-28T13:36:43;7.43;;;2.60;;
58992;SDS011;44782;0.000;0.000;2023-12-28T13:38:59;5.27;;;2.37;;
58992;SDS011;44782;0.000;0.000;2023-12-28T13:41:15;7.33;;;2.57;;
58992;SDS011;44782;0.000;0.000;2023-12-28T13:43:30;11.40;;;3.03;;
58992;SDS011;44782;0.000;0.000;2023-12-28T13:45:46;7.27;;;2.70;;
58992;SDS011;44782;0.000;0.000;2023-12-28T13:48:02;6.37;;;2.43;;
58992;SDS011;44782;0.000;0.000;2023-12-28T13:50:18;8.47;;;2.60;;
58992;SDS011;44782;0.000;0.000;2023-12-28T13:52:35;8.07;;;2.40;;
58992;SDS011;44782;0.000;0.000;2023-12-28T13:54:50;8.30;;;2.60;;
58992;SDS011;44782;0.000;0.000;2023-12-28T13:57:06;8.27;;;2.90;;